< < Back
Terminal Aerodrome Forecast


Current Version              Previous Versions:   1  2  3  4  5  6  7  8  9  

Terminal Aerodrome Forecast

368
FTUS44 KMOB 301100
TAFMOB
TAF
KMOB 301123Z 3012/3112 13005KT P6SM VCSH FEW007 BKN150
     FM301500 17012KT P6SM VCTS SCT030CB BKN120 BKN250
     FM310100 14004KT P6SM FEW040 SCT100 BKN200=



Latest METAR

732
SAUS80 KWBC 301600
MTRMOB
METAR KMOB 301556Z 14013G17KT 10SM SCT024TCU BKN031 BKN039 31/25 A3009
RMK AO2 SLP185 TCU ALQDS T03110250


USA.gov is the U.S. government's official web portal to all federal, state and local government web resources and services.